NWS Home NWS Lubbock West Texas Mesonet Latest Conditions as of 0111 PM, Wed Aug 12, 2020

Latest   N   C   S   Daily Sum   3hrΔ   24hrΔ   Soil Data 
Site Map   24hr Precip   72hr Precip   Google Plot


Station Time of Last Temp Dew Pt. RH Wind Direction Wind Speed Wind Gust Max Wind Max Temp Min Temp Max RH Min RH Altimeter 1HR Rain Today's Rain Solar Rad RFTI
Abernathy 5ENE  01:05 PM 97 55 25% S1723 27 mph 209° @ 0914 AM 97 72 56 22 30.02" 0 0 1107 0
Adrian 6WSW  01:05 PM 96 45 17% W1012 31 mph 200° @ 0503 AM 96 72 55 15 30.07" 0 0 978 0
Aiken 3WSW  01:05 PM 97 59 28% S1216 43 mph 112° @ 1205 AM 97 67 78 26 30.02" 0 0 1085 0
Amarillo 15NNW   01:05 PM 100 50 19% NW1115 21 mph 321° @ 1222 PM 100 73 51 19 29.99" 0 0 940 0
Amarillo 7SSE  01:05 PM 98 54 23% W1214 25 mph 237° @ 0921 AM 98 69 57 22 30.02" 0 0 980 0
Amarillo 9NNE  01:05 PM 97 56 25% SW34 29 mph 200° @ 0517 AM 100 73 52 23 29.99" 0 0 795 0
Amherst 1NE  01:05 PM 97 55 26% SW1319 22 mph 190° @ 0950 AM 97 67 71 26 30.03" 0 0.01 943 0
Andrews 2E  01:05 PM 99 47 18% SW813 22 mph 161° @ 0925 AM 99 73 62 17 30.02" 0 0 969 0
Anton 6SSW  01:05 PM 97 54 25% S1321 28 mph 184° @ 0945 AM 97 71 59 25 30.02" 0 0 940 0
Aspermont 3NE  01:05 PM 99 62 30% S1014 23 mph 215° @ 0925 AM 101 75 61 30 29.94" 0 0 352 0
Big Bend NP - Castolon  01:05 PM 100 59 26% SE1012 29 mph 123° @ 1224 AM 100 82 52 25 29.93" 0 0 990 0
Big Bend NP - Persimmon Gap  01:05 PM 97 57 26% S46 18 mph 38° @ 1211 AM 98 77 47 25 29.99" 0 0 935 0
Big Lake 1WNW  01:05 PM 94 61 34% S1417 27 mph 179° @ 1019 AM 95 75 71 33 30.01" 0 0 966 0
Bootleg 11WNW  01:05 PM 99 42 14% NW811 27 mph 239° @ 0919 AM 99 70 54 12 30.10" 0 0 899 0
Borger 7E  01:05 PM 94 58 30% NW37 28 mph 212° @ 0933 AM 94 68 88 29 29.98" 0 0 966 0
Boys Ranch 1WSW  01:05 PM 99 50 19% W79 19 mph 333° @ 1200 PM 100 71 64 18 29.96" 0 0 914 0
Brownfield 2S  01:05 PM 97 55 25% S911 25 mph 185° @ 1027 AM 98 70 59 23 30.02" 0 0 967 0
Canadian 6E  01:05 PM 93 71 49% SE1720 25 mph 153° @ 1216 PM 93 71 100 49 29.92" 0 0 933 0
Caprock Canyons State Park  01:05 PM 99 48 18% S1415 27 mph 221° @ 0646 AM 100 74 62 17 29.97" 0 0 1025 0
Childress 2NNE  01:05 PM 102 57 24% S1723 23 mph 162° @ 0105 PM 102 72 64 24 29.93" 0 0 921 0
Clarendon 2WSW  01:05 PM 98 54 24% SW1222 26 mph 215° @ 0935 AM 98 67 74 24 29.97" 0 0 984 0
Claude 12SW  01:05 PM 96 57 28% S811 25 mph 185° @ 0532 AM 98 72 54 26 30.00" 0 0 627 0
Clyde 2WNW  01:05 PM 96 66 37% S1115 23 mph 214° @ 0912 AM 97 77 72 35 29.99" 0 0 935 0
Colorado City 5NW  01:05 PM 100 61 28% SW1113 22 mph 189° @ 1151 AM 100 75 62 28 29.97" 0 0 923 0
Comanche Springs  01:05 PM 101 64 30% S1620 25 mph 210° @ 0946 AM 101 71 68 30 29.92" 0 0 950 0
Coyanosa 2N  01:05 PM 102 54 21% E911 19 mph 131° @ 0912 AM 102 75 57 21 29.96" 0 0 971 0
Crane 1NNW   01:05 PM 97 59 28% S1013 23 mph 172° @ 0930 AM 98 79 60 28 29.98" 0 0 963 0
Crowell 1E  01:05 PM 100 64 31% S1115 25 mph 224° @ 0938 AM 101 80 50 31 29.93" 0 0 940 0
Dell City  01:05 PM 97 56 26% E47 11 mph 163° @ 1207 AM 97 67 69 25 30.05" 0 0 918 0
Denver City 7WNW  01:05 PM 96 55 26% S1217 23 mph 158° @ 1225 AM 96 69 63 26 30.04" 0 0 990 0
Dimmitt 2NE  01:05 PM 92 58 34% SW1116 28 mph 213° @ 0935 AM 92 69 65 34 30.05" 0 0 1018 0
Doole 3WNW  01:05 PM 98 64 33% SE912 20 mph 177° @ 0357 AM 100 78 74 32 29.96" 0 0 961 0
Dora NM 2SW  01:05 PM 95 49 22% W510 20 mph 150° @ 1210 AM 95 68 67 22 30.08" 0 0 934 0
Dozier 3W  01:05 PM 99 62 30% E1114 18 mph 154° @ 1225 PM 99 72 95 26 29.96" 0 0 926 0
Earth 9WSW  01:05 PM 96 57 28% SW1215 22 mph 190° @ 0929 AM 96 71 64 28 30.05" 0 0 1050 0
Endee NM 2SW  01:05 PM 100 44 15% NW46 32 mph 165° @ 0146 AM 100 77 42 14 30.04" 0 0 911 0
Estelline 3SSE  01:05 PM 103 59 23% S1114 22 mph 170° @ 1253 PM 104 72 65 23 29.91" 0 0 942 0
Floydada 2NNE  01:05 PM 96 54 25% S1624 34 mph 242° @ 1205 AM 96 73 58 20 30.01" 0 0 942 0
Fluvanna 3WNW  01:05 PM 95 59 31% S1217 25 mph 194° @ 1020 AM 95 76 58 31 29.99" 0 0 901 0
Fort Chadbourne  01:05 PM 98 60 29% S911 21 mph 146° @ 1244 PM 98 74 71 27 29.98" 0 0 731 0
Fort Lancaster  01:05 PM 96 66 37% S1317 23 mph 149° @ 1238 PM 96 78 72 37 29.98" 0 0 943 0
Fort Lewis CO  01:05 PM 80 43 26% W1721 22 mph 266° @ 1241 PM 81 48 80 25 30.40" 0 0 996 0
Fort McKavett  01:05 PM 96 64 35% S713 20 mph 189° @ 1140 AM 97 74 86 33 30.02" 0 0 962 0
Friona 2NE  01:05 PM 97 51 22% SW710 24 mph 204° @ 0520 AM 97 71 59 22 30.06" 0 0 957 0
Fritch 1WNW  01:05 PM 96 54 24% NW69 23 mph 227° @ 1004 AM 96 72 61 24 29.99" 0 0 976 0
Gail 2ESE  01:05 PM 98 53 23% S1118 23 mph 199° @ 0905 AM 99 76 52 23 29.97" 0 0 905 0
Goodlett 3W  01:05 PM 102 60 27% S1625 27 mph 172° @ 1255 PM 102 74 60 27 29.91" 0 0 939 0
Goodnight  01:05 PM 100 57 24% S1316 27 mph 220° @ 0931 AM 100 69 76 24 30.00" 0 0 971 0
Graham 5SSW  01:05 PM 97 51 22% S1524 29 mph 184° @ 0355 AM 97 78 51 22 30.00" 0 0 917 0
Guadalupe Mtns Natl Park  01:05 PM 93 43 18% SW1012 18 mph 213° @ 1052 AM 93 70 48 18 30.21" 0 0 930 0
Guthrie 10WSW  01:05 PM 100 56 24% S1723 28 mph 212° @ 0840 AM 101 78 50 24 29.94" 0 0 905 0
Hackberry 2SSE  01:05 PM 100 63 30% S1317 32 mph 215° @ 1151 AM 100 77 57 29 29.94" 0 0 970 0
Happy 1E  01:05 PM 93 59 32% SW1416 31 mph 226° @ 1003 AM 93 69 62 31 30.03" 0 0 1013 0
Hart 3N  01:05 PM 94 58 31% SW1217 30 mph 145° @ 1220 AM 94 68 70 31 30.04" 0 0 949 0
Haskell 1NW  01:05 PM 97 66 38% SW1218 23 mph 217° @ 0925 AM 98 78 61 36 29.94" 0 0 888 0
Hefner 1SW  01:05 PM 101 65 31% S711 26 mph 207° @ 0929 AM 102 79 57 30 29.94" 0 0 947 0
Hereford 2NW  01:05 PM 97 53 24% S811 23 mph 227° @ 0940 AM 98 71 57 22 30.03" 0 0 932 0
Hobbs NM 5NW  01:05 PM 93 51 24% S811 31 mph 148° @ 1208 AM 94 70 63 23 30.07" 0 0 955 0
Jayton 1SSE  01:05 PM 99 60 29% S1116 27 mph 185° @ 1205 PM 100 78 57 29 29.95" 0 0 928 0
Junction 1SSW  01:05 PM 95 68 41% S913 21 mph 163° @ 0249 AM 96 75 86 41 29.99" 0 0 845 0
Kent 9E  01:05 PM 100 45 16% NE710 17 mph 77° @ 1259 PM 100 71 43 16 30.07" 0 0 921 0
Knox City 3NW  01:05 PM 102 63 30% S1318 25 mph 217° @ 0940 AM 103 79 57 30 29.92" 0 0 956 0
Lake Alan Henry 1NW  01:05 PM 99 60 28% S1113 24 mph 216° @ 0933 AM 99 81 52 27 29.96" 0 0 918 0
Lake McClellan 2NW  01:05 PM 96 54 25% SW911 26 mph 202° @ 1226 PM 98 70 82 23 30.02" 0 0 924 0
Lamesa 2SE  01:05 PM 98 51 21% S1321 23 mph 183° @ 0945 AM 98 71 61 21 30.01" 0 0 952 0
Lesley 2S  01:05 PM 103 58 23% S1114 21 mph 185° @ 1239 PM 105 73 62 21 29.91" 0 0 938 0
Levelland 4S  01:05 PM 94 59 31% S1316 24 mph 186° @ 0946 AM 94 66 79 31 30.03" 0 0 943 0
Lomax 1SSE  01:05 PM 97 57 27% S1315 24 mph 182° @ 0958 AM 97 76 61 27 29.99" 0 0 964 0
Lubbock 3WNW TTU  01:05 PM 97 55 25% SW1421 26 mph 197° @ 0410 AM 97 76 49 25 30.01" 0 0 941 0
McAdoo 3NNW  01:05 PM 98 57 26% S1722 27 mph 200° @ 1022 AM 98 75 53 25 30.01" 0 0 946 0
McCamey 1SSW  01:05 PM 96 62 33% SE812 21 mph 154° @ 1056 AM 96 78 63 32 29.98" 0 0 850 0
McLean 1E  01:05 PM 97 56 27% SE710 24 mph 226° @ 0930 AM 97 72 90 27 29.98" 0 0 965 0
Memphis 1NE  01:05 PM 101 52 21% S1320 22 mph 190° @ 1245 PM 101 70 76 21 29.92" 0 0 834 0
Menard 2NW   01:05 PM 95 66 38% S1316 21 mph 158° @ 1151 AM 96 76 81 38 30.00" 0 0 868 0
Mertzon 3NNE  01:05 PM 97 63 32% S1114 23 mph 171° @ 0928 AM 98 76 73 28 29.99" 0 0 953 0
Morton 1ENE  01:05 PM 96 53 24% SW917 23 mph 198° @ 0910 AM 97 70 58 24 30.04" 0 0 940 0
Muleshoe 2SSW  01:05 PM 96 52 24% W917 22 mph 191° @ 0610 AM 96 69 73 24 30.05" 0 0 1020 0
New Home  01:05 PM 97 54 24% S1213 24 mph 193° @ 1000 AM 97 72 57 24 30.04" 0 0 949 0
Northfield 1S  01:05 PM 101 55 23% S1319 22 mph 168° @ 1215 PM 101 77 50 22 29.92" 0 0 936 0
O'Donnell 1N  01:05 PM 97 53 24% S1015 25 mph 191° @ 0940 AM 97 74 55 24 30.01" 0 0 875 0
Odell 4ENE  12:50 PM 96 66 37% S79 19 mph 223° @ 1022 AM 97 73 86 36 29.94" 0 0 951 0
Olton 6S  01:05 PM 97 56 27% SW1117 25 mph 209° @ 0950 AM 97 68 67 26 30.03" 0 0 942 0
Paducah 10SW  01:05 PM 99 58 27% S1522 31 mph 222° @ 0910 AM 99 71 68 27 29.94" 0 0 949 0
Palo Duro 4E (JA Ranch)  01:05 PM 96 60 30% SW1114 22 mph 225° @ 1023 AM 98 67 88 27 29.95" 0 0 288 0
Palo Duro Canyon SP Floor  01:05 PM 100 58 25% SW69 19 mph 258° @ 0755 AM 100 69 71 25 29.95" 0 0 977 0
Palo Duro Canyon State Park Rim  01:05 PM 101 55 22% E12 23 mph 217° @ 0755 AM 102 72 53 21 30.01" 0 0 1039 0
Palo Duro Reservoir 1NW   01:05 PM 89 65 44% W912 30 mph 146° @ 0258 AM 89 70 95 38 29.96" 0 0 927 0
Pampa 2E  01:05 PM 94 58 32% S712 26 mph 116° @ 1235 AM 94 68 99 31 30.00" 0 0 921 0
Panhandle 1SSW  01:05 PM 95 57 28% SW36 25 mph 216° @ 1003 AM 96 67 79 27 30.02" 0 0 955 0
Plains 3N  01:05 PM 97 50 21% S1520 25 mph 192° @ 1010 AM 97 70 59 21 30.04" 0 0 963 0
Plainview 1S  01:05 PM 93 56 30% SW1016 26 mph 162° @ 1205 AM 93 69 72 30 30.01" 0 0 1146 0
Post 1NE  01:05 PM 100 49 18% S1522 24 mph 202° @ 1040 AM 100 79 46 18 29.97" 0 0 967 0
Ralls 1SE  01:05 PM 95 50 23% S1622 25 mph 202° @ 0935 AM 95 69 67 22 30.02" 0 0 937 0
Reese Center  01:05 PM 97 54 24% S1923 27 mph 184° @ 0101 PM 97 70 59 24 30.01" 0 0 978 0
Roaring Springs 3N  01:05 PM 99 55 24% S1420 28 mph 207° @ 0945 AM 99 78 51 24 29.97" 0 0 918 0
Romero 11SSW  01:05 PM 96 49 20% NE1315 21 mph 29° @ 0100 PM 97 69 61 17 30.03" 0 0 910 0
Rotan 5W  01:05 PM 100 61 28% S1517 28 mph 203° @ 0828 AM 101 79 55 28 29.97" 0 0 962 0
San Angelo 7NW  01:05 PM 98 60 30% S1014 24 mph 153° @ 1200 PM 98 78 71 30 29.98" 0 0 911 0
Seagraves 1SW  01:05 PM 96 58 29% SW914 21 mph 168° @ 0915 AM 97 66 73 28 30.03" 0 0 906 0
Segovia 7SSW  01:05 PM 93 67 43% SW912 22 mph 152° @ 0314 AM 93 73 91 41 30.04" 0 0 982 0
Seminole 2NNE  01:05 PM 98 55 25% S1115 27 mph 151° @ 0145 AM 98 69 65 25 30.02" 0 0 950 0
Seymour 3NW  01:05 PM 101 64 32% SE712 25 mph 208° @ 0925 AM 101 80 57 31 29.92" 0 0 814 0
Sierra Blanca 1SSE  01:05 PM 95 49 21% N45 12 mph 162° @ 1201 AM 98 74 49 21 30.12" 0 0 873 0
Silverton 7ESE  01:05 PM 98 50 21% S1621 32 mph 226° @ 0940 AM 100 69 60 21 30.01" 0 0 877 0
Slaton 2NE  01:05 PM 96 56 27% S1623 28 mph 211° @ 0955 AM 96 74 55 26 30.01" 0 0 833 0
Smyer  01:05 PM 95 55 26% S1620 25 mph 215° @ 1019 AM 95 71 59 25 30.03" 0 0 1024 0
Snyder 3E  01:05 PM 99 60 29% S1420 25 mph 189° @ 0900 AM 99 76 60 29 29.98" 0 0 942 0
Snyder 3SSW  01:05 PM 97 61 31% SW812 23 mph 203° @ 0850 AM 97 77 59 30 29.98" 0 0 1014 0
South Plains 3ENE  01:05 PM 97 55 25% S1519 34 mph 201° @ 1201 AM 98 72 64 20 30.01" 0 0 929 0
Spur 1W  01:05 PM 99 59 28% S1320 24 mph 213° @ 0935 AM 99 75 55 28 29.96" 0 0 936 0
St. Lawrence 5SW  01:05 PM 96 57 29% S1418 23 mph 183° @ 1210 PM 96 73 67 29 30.00" 0 0 951 0
Stamford 5ESE  01:05 PM 100 65 32% S1520 25 mph 210° @ 0922 AM 100 78 60 32 29.95" 0 0 943 0
Sterling City 4WSW  01:05 PM 100 58 25% S1116 22 mph 181° @ 0928 AM 100 77 64 25 29.99" 0 0 805 0
Stinnett 1NNW  01:05 PM 88 59 38% NW67 23 mph 221° @ 0947 AM 90 67 100 32 30.01" 0 0 942 0
Stratford 4WNW  01:05 PM 85 63 46% NW1114 25 mph 333° @ 1010 AM 85 60 89 31 30.05" 0 0 941 0
Sundown 8WSW  01:05 PM 98 48 19% S914 26 mph 188° @ 0910 AM 98 69 61 19 30.04" 0 0 866 0
Sweetwater 11SW   01:05 PM 96 59 29% SE1112 30 mph 163° @ 1121 AM 97 77 65 26 30.00" 0 0 1009 0
Tahoka 3NNE  01:05 PM 98 52 21% S1115 26 mph 197° @ 0931 AM 98 73 55 20 30.01" 0 0 950 0
Tarzan 2WNW  01:05 PM 97 57 26% S610 22 mph 164° @ 1114 AM 98 74 58 26 30.00" 0 0 958 0
Tatum NM 2SW  01:05 PM 101 44 15% S1320 25 mph 167° @ 1225 AM 101 73 50 15 30.06" 0 0 915 0
Throckmorton 1SW  01:05 PM 101 67 34% S59 24 mph 218° @ 0857 AM 102 80 62 33 29.94" 0 0 949 0
Truscott 2SE  01:05 PM 101 63 29% S1013 24 mph 214° @ 0921 AM 101 78 52 29 29.93" 0 0 919 0
Tulia 2ENE  01:05 PM 90 58 36% SW1218 29 mph 207° @ 1015 AM 94 70 63 31 30.03" 0 0 300 0
Turkey 2WSW  01:05 PM 101 54 21% S1622 28 mph 205° @ 0945 AM 101 75 58 21 29.94" 0 0 840 0
Umbarger 3NNE  01:05 PM 98 54 23% W1012 27 mph 231° @ 1004 AM 99 70 59 23 30.03" 0 0 988 0
Van Horn 3ENE  01:05 PM 98 51 20% S46 14 mph 193° @ 0325 AM 99 71 56 19 30.07" 0 0 972 0
Vigo Park  01:05 PM 95 57 29% SW1114 31 mph 221° @ 0917 AM 100 69 63 24 30.02" 0 0 348 0
Wall 2E  01:05 PM 97 64 34% S910 23 mph 199° @ 1216 PM 97 77 76 33 29.98" 0 0 958 0
Weinert 2NNE  01:05 PM 100 63 30% SE1114 25 mph 213° @ 1012 AM 100 81 53 30 29.94" 0 0 864 0
Welch  01:05 PM 98 54 23% S1418 22 mph 190° @ 0948 AM 98 69 63 22 30.02" 0 0 948 0
White River Lake 6NW  01:05 PM 98 58 28% S1726 26 mph 195° @ 1215 PM 98 75 55 27 29.98" 0 0 966 0
Wolfforth 6SSW  01:05 PM 96 55 27% S1418 25 mph 197° @ 0950 AM 96 67 68 27 30.02" 0 0.02 951 0

West Texas Mesonet Home   Site Map/Menu  NWS Lubbock Soil Data  Daily Summary Page  24hr Precip  72hr Precip  Google Plot